Time;durP1;ratioP1;P1;durP2;ratioP2;P2;SDS_P1;SDS_P2;PMS_P1;PMS_P2;Temp;Humidity;BMP_temperature;BMP_pressure;BME280_temperature;BME280_humidity;BME280_pressure;Samples;Min_cycle;Max_cycle;Signal;HPM_P1;HPM_P2
2022/03/06 00:02:20;;;;;;;9.67;5.03;;;1.50;99.90;;;;;;5058551;28;20935;-66
2022/03/06 00:04:49;;;;;;;9.20;5.47;;;1.40;99.90;;;;;;5066258;28;20594;-66
2022/03/06 00:07:17;;;;;;;7.03;5.30;;;1.40;99.90;;;;;;5070375;28;21028;-66
2022/03/06 00:09:45;;;;;;;7.33;5.00;;;1.50;99.90;;;;;;5061487;28;20450;-67
2022/03/06 00:12:14;;;;;;;9.50;4.77;;;1.40;99.90;;;;;;5071393;28;20541;-66
2022/03/06 00:14:42;;;;;;;10.63;5.90;;;1.60;99.90;;;;;;5062282;28;20459;-66
2022/03/06 00:17:10;;;;;;;6.97;4.83;;;1.80;99.90;;;;;;5066192;28;20474;-65
2022/03/06 00:19:39;;;;;;;8.13;5.07;;;1.80;99.90;;;;;;5069984;28;20462;-65
2022/03/06 00:22:07;;;;;;;7.17;4.63;;;1.70;99.90;;;;;;5063175;28;20470;-66
2022/03/06 00:24:36;;;;;;;6.77;4.60;;;1.60;99.90;;;;;;5058659;28;20557;-66
2022/03/06 00:27:05;;;;;;;6.33;4.57;;;1.70;99.90;;;;;;5054639;28;20507;-66
2022/03/06 00:29:34;;;;;;;6.27;4.47;;;1.70;99.90;;;;;;5061383;28;20471;-66
2022/03/06 00:32:03;;;;;;;8.60;4.60;;;1.60;99.90;;;;;;5071323;28;20498;-66
2022/03/06 00:34:32;;;;;;;7.60;4.40;;;1.80;99.90;;;;;;5060232;28;20496;-65
2022/03/06 00:37:00;;;;;;;6.70;4.10;;;1.80;99.90;;;;;;5065862;28;20483;-66
2022/03/06 00:39:29;;;;;;;5.80;3.73;;;1.70;99.90;;;;;;5063124;28;20454;-66
2022/03/06 00:41:57;;;;;;;5.83;3.40;;;1.60;99.90;;;;;;5053377;28;20559;-66
2022/03/06 00:44:26;;;;;;;5.20;4.10;;;1.60;99.90;;;;;;5062543;28;20595;-66
2022/03/06 00:46:55;;;;;;;5.67;3.23;;;1.70;99.90;;;;;;5070836;28;21024;-66
2022/03/06 00:49:23;;;;;;;3.67;3.00;;;1.80;99.90;;;;;;5070702;28;20503;-65
2022/03/06 00:51:51;;;;;;;5.07;3.53;;;1.80;99.90;;;;;;5069741;28;20462;-66
2022/03/06 00:54:20;;;;;;;5.90;3.30;;;1.70;99.90;;;;;;5051110;28;20467;-66
2022/03/06 00:56:49;;;;;;;4.37;2.87;;;1.60;99.90;;;;;;5052366;28;20525;-66
2022/03/06 00:59:17;;;;;;;5.77;3.13;;;1.60;99.90;;;;;;5064556;28;20490;-66
2022/03/06 01:01:45;;;;;;;5.67;3.13;;;1.60;99.90;;;;;;5051488;28;20475;-66
2022/03/06 01:04:15;;;;;;;3.87;2.80;;;1.60;99.90;;;;;;5062059;28;20555;-65
2022/03/06 01:06:43;;;;;;;5.20;2.80;;;1.50;99.90;;;;;;5063239;28;20546;-67
2022/03/06 01:09:12;;;;;;;3.93;2.70;;;1.50;99.90;;;;;;5062518;28;20550;-66
2022/03/06 01:11:41;;;;;;;3.73;2.70;;;1.60;99.90;;;;;;5050923;28;20997;-66
2022/03/06 01:14:09;;;;;;;4.07;2.87;;;1.60;99.90;;;;;;5070810;28;20476;-65
2022/03/06 01:16:37;;;;;;;5.83;3.10;;;1.50;99.90;;;;;;5070725;28;20489;-66
2022/03/06 01:19:06;;;;;;;4.27;2.40;;;1.60;99.90;;;;;;5057791;28;20468;-66
2022/03/06 01:21:35;;;;;;;3.63;2.73;;;1.60;99.90;;;;;;5053843;28;20461;-66
2022/03/06 01:24:03;;;;;;;5.87;3.07;;;1.50;99.90;;;;;;5070254;28;20545;-66
2022/03/06 01:26:31;;;;;;;3.97;2.73;;;1.70;99.90;;;;;;5070513;28;20469;-66
2022/03/06 01:29:00;;;;;;;4.33;2.70;;;1.70;99.90;;;;;;5063546;28;20470;-66
2022/03/06 01:31:28;;;;;;;4.60;3.03;;;1.70;99.90;;;;;;5069178;28;20468;-65
2022/03/06 01:33:56;;;;;;;4.17;2.73;;;1.60;99.90;;;;;;5064409;28;20494;-66
2022/03/06 01:36:24;;;;;;;5.53;2.70;;;1.60;99.90;;;;;;5062050;28;20458;-66
2022/03/06 01:38:54;;;;;;;3.80;3.03;;;1.70;99.90;;;;;;5069147;28;20493;-66
2022/03/06 01:41:22;;;;;;;5.13;3.40;;;1.80;99.90;;;;;;5074326;28;20483;-64
2022/03/06 01:43:50;;;;;;;4.27;3.13;;;2.10;99.90;;;;;;5054208;28;20464;-65
2022/03/06 01:46:18;;;;;;;6.53;2.80;;;1.90;99.90;;;;;;5054443;28;20475;-66
2022/03/06 01:48:46;;;;;;;4.60;3.13;;;1.80;99.90;;;;;;5054180;28;20512;-66
2022/03/06 01:51:15;;;;;;;5.37;2.80;;;1.80;99.90;;;;;;5053795;28;20459;-66
2022/03/06 01:53:43;;;;;;;5.07;2.50;;;1.90;99.90;;;;;;5065037;28;20546;-66
2022/03/06 01:56:14;;;;;;;3.93;2.67;;;1.80;99.90;;;;;;5070364;28;20508;-66
2022/03/06 01:58:42;;;;;;;3.63;2.50;;;1.90;99.90;;;;;;5069230;28;20556;-66
2022/03/06 02:01:11;;;;;;;3.03;2.53;;;1.90;99.90;;;;;;5068854;28;20998;-66
2022/03/06 02:03:39;;;;;;;5.10;2.70;;;1.80;99.90;;;;;;5068456;28;20472;-66
2022/03/06 02:06:08;;;;;;;3.97;2.90;;;1.70;99.90;;;;;;5037874;28;20998;-66
2022/03/06 02:08:36;;;;;;;5.00;3.33;;;1.60;99.90;;;;;;5072495;28;20438;-66
2022/03/06 02:11:05;;;;;;;4.03;2.53;;;1.80;99.90;;;;;;5071307;28;20877;-66
2022/03/06 02:13:35;;;;;;;4.97;2.67;;;1.90;99.90;;;;;;5068544;28;20990;-66
2022/03/06 02:16:04;;;;;;;5.63;2.80;;;1.90;99.90;;;;;;5068933;28;20499;-66
2022/03/06 02:18:32;;;;;;;5.20;2.57;;;1.80;99.90;;;;;;5073695;28;20477;-66
2022/03/06 02:21:06;;;;;;;3.63;2.47;;;1.80;99.90;;;;;;5073265;28;20471;-66
2022/03/06 02:23:34;;;;;;;3.70;2.60;;;1.80;99.90;;;;;;5069834;28;20562;-65
2022/03/06 02:26:03;;;;;;;4.80;2.30;;;1.70;99.90;;;;;;5068780;28;20878;-66
2022/03/06 02:28:31;;;;;;;5.53;2.47;;;1.70;99.90;;;;;;5073084;28;20467;-66
2022/03/06 02:30:59;;;;;;;5.63;2.77;;;1.70;99.90;;;;;;5073295;28;20520;-66
2022/03/06 02:33:32;;;;;;;4.93;2.60;;;1.80;99.90;;;;;;5074944;28;21018;-65
2022/03/06 02:36:00;;;;;;;3.97;2.70;;;1.70;99.90;;;;;;5066628;28;20504;-66
2022/03/06 02:38:29;;;;;;;5.93;2.50;;;1.60;99.90;;;;;;5068065;28;20803;-65
2022/03/06 02:40:57;;;;;;;5.23;2.70;;;1.70;99.90;;;;;;5056595;28;20458;-66
2022/03/06 02:43:25;;;;;;;4.67;2.90;;;1.70;99.90;;;;;;5072783;28;20492;-66
2022/03/06 02:45:54;;;;;;;3.37;2.63;;;1.70;99.90;;;;;;5056473;28;20840;-66
2022/03/06 02:48:22;;;;;;;2.97;2.60;;;1.70;99.90;;;;;;5071610;28;20480;-66
2022/03/06 02:50:51;;;;;;;5.43;3.00;;;1.70;99.90;;;;;;5056570;28;21034;-66
2022/03/06 02:53:22;;;;;;;4.00;2.60;;;1.70;99.90;;;;;;5074035;28;20471;-66
2022/03/06 02:55:52;;;;;;;6.00;2.70;;;1.70;99.90;;;;;;5056284;28;20882;-66
2022/03/06 02:58:21;;;;;;;4.33;2.67;;;1.60;99.90;;;;;;5072631;28;20506;-66
2022/03/06 03:00:49;;;;;;;4.07;2.80;;;1.60;99.90;;;;;;5072895;28;20469;-66
2022/03/06 03:03:18;;;;;;;5.03;2.77;;;1.60;99.90;;;;;;5072613;28;20480;-66
2022/03/06 03:05:46;;;;;;;4.37;2.83;;;1.70;99.90;;;;;;5060965;28;20471;-66
2022/03/06 03:08:15;;;;;;;4.63;2.73;;;1.80;99.90;;;;;;5063579;28;20835;-66
2022/03/06 03:10:43;;;;;;;3.80;2.60;;;1.70;99.90;;;;;;5045438;28;21069;-66
2022/03/06 03:13:13;;;;;;;4.80;3.37;;;1.70;99.90;;;;;;5052287;28;20475;-66
2022/03/06 03:15:41;;;;;;;6.63;3.03;;;2.00;99.90;;;;;;5044938;28;20550;-66
2022/03/06 03:18:09;;;;;;;3.43;2.50;;;2.10;99.90;;;;;;5052262;28;20475;-66
2022/03/06 03:20:37;;;;;;;5.07;3.10;;;2.10;99.90;;;;;;5044189;28;20536;-65
2022/03/06 03:23:05;;;;;;;4.40;3.03;;;2.30;99.90;;;;;;5052419;28;20471;-65
2022/03/06 03:25:33;;;;;;;4.87;3.10;;;2.20;99.90;;;;;;5045825;28;20485;-66
2022/03/06 03:28:01;;;;;;;3.83;2.80;;;2.00;99.90;;;;;;5052095;28;20462;-66
2022/03/06 03:30:31;;;;;;;3.63;2.80;;;1.80;99.90;;;;;;5024926;28;20472;-66
2022/03/06 03:32:59;;;;;;;4.70;2.60;;;1.80;99.90;;;;;;5033708;28;21005;-66
2022/03/06 03:35:27;;;;;;;3.77;2.50;;;1.80;99.90;;;;;;5032288;28;20779;-66
2022/03/06 03:37:55;;;;;;;4.77;2.47;;;1.70;99.90;;;;;;5032195;28;20494;-66
2022/03/06 03:40:24;;;;;;;4.63;2.67;;;2.00;99.90;;;;;;5032225;28;20463;-65
2022/03/06 03:42:52;;;;;;;3.37;2.60;;;2.30;99.90;;;;;;5032076;28;20502;-66
2022/03/06 03:45:20;;;;;;;4.10;2.50;;;2.30;99.90;;;;;;5031976;28;20455;-66
2022/03/06 03:47:49;;;;;;;4.13;2.60;;;2.10;99.90;;;;;;5031924;28;20548;-66
2022/03/06 03:50:17;;;;;;;4.60;2.77;;;2.10;99.90;;;;;;5031914;28;20471;-66
2022/03/06 03:52:45;;;;;;;5.90;3.17;;;2.30;99.90;;;;;;5033405;28;20980;-66
2022/03/06 03:55:14;;;;;;;6.07;2.83;;;2.10;99.90;;;;;;5031785;28;20482;-66
2022/03/06 03:57:42;;;;;;;3.43;2.50;;;2.00;99.90;;;;;;5032064;28;20506;-66
2022/03/06 04:00:11;;;;;;;4.00;2.67;;;2.00;99.90;;;;;;5031713;28;20482;-65
2022/03/06 04:02:40;;;;;;;5.33;2.60;;;1.90;99.90;;;;;;5031448;28;20509;-66
2022/03/06 04:05:10;;;;;;;5.60;2.40;;;1.90;99.90;;;;;;5031266;28;20470;-66
2022/03/06 04:07:38;;;;;;;4.53;2.53;;;1.90;99.90;;;;;;5023487;28;20557;-66
2022/03/06 04:10:06;;;;;;;4.30;2.50;;;1.90;99.90;;;;;;5031675;28;20491;-66
2022/03/06 04:12:34;;;;;;;3.50;2.50;;;2.00;99.90;;;;;;5032927;28;20473;-66
2022/03/06 04:15:03;;;;;;;4.70;2.63;;;2.20;99.90;;;;;;5031474;28;20490;-65
2022/03/06 04:17:31;;;;;;;5.33;2.43;;;2.10;99.90;;;;;;5031351;28;20849;-66
2022/03/06 04:19:59;;;;;;;4.43;2.50;;;2.20;99.90;;;;;;5031430;28;20495;-65
2022/03/06 04:22:29;;;;;;;6.20;2.20;;;2.00;99.90;;;;;;5031384;28;21007;-66
2022/03/06 04:24:57;;;;;;;3.17;2.53;;;2.00;99.90;;;;;;5031474;28;20457;-66
2022/03/06 04:27:25;;;;;;;3.07;2.07;;;1.90;99.90;;;;;;5031302;28;20467;-66
2022/03/06 04:29:53;;;;;;;4.10;2.23;;;1.90;99.90;;;;;;5046446;28;20459;-66
2022/03/06 04:32:22;;;;;;;5.03;2.40;;;1.80;99.90;;;;;;5052732;28;20475;-66
2022/03/06 04:34:51;;;;;;;4.27;2.53;;;1.70;99.90;;;;;;5055829;28;20554;-65
2022/03/06 04:37:19;;;;;;;3.20;2.27;;;1.70;99.90;;;;;;5062598;28;20544;-66
2022/03/06 04:39:49;;;;;;;3.43;2.40;;;1.60;99.90;;;;;;5051779;28;20562;-66
2022/03/06 04:42:17;;;;;;;3.27;2.33;;;1.70;99.90;;;;;;5046011;28;20476;-66
2022/03/06 04:44:45;;;;;;;4.13;2.50;;;1.60;99.90;;;;;;5030846;28;20487;-66
2022/03/06 04:47:13;;;;;;;4.27;2.30;;;1.80;99.90;;;;;;5035443;28;20479;-66
2022/03/06 04:49:41;;;;;;;4.40;2.37;;;1.70;99.90;;;;;;5042716;28;20816;-66
2022/03/06 04:52:10;;;;;;;3.10;2.10;;;1.70;99.90;;;;;;5050700;28;20467;-65
2022/03/06 04:54:38;;;;;;;4.73;2.73;;;2.30;99.90;;;;;;5042682;28;20993;-66
2022/03/06 04:57:08;;;;;;;3.90;2.60;;;2.10;99.90;;;;;;5050867;28;20463;-66
2022/03/06 04:59:36;;;;;;;4.17;2.40;;;2.00;99.90;;;;;;5042486;28;20474;-66
2022/03/06 05:02:05;;;;;;;3.93;2.57;;;1.90;99.90;;;;;;5050856;28;20470;-66
2022/03/06 05:04:33;;;;;;;3.53;2.20;;;1.90;99.90;;;;;;5047609;28;20562;-66
2022/03/06 05:07:01;;;;;;;5.53;2.50;;;1.80;99.90;;;;;;5039092;28;20472;-66
2022/03/06 05:09:29;;;;;;;3.67;2.70;;;1.90;99.90;;;;;;5030851;28;20477;-66
2022/03/06 05:11:57;;;;;;;4.50;2.80;;;1.80;99.90;;;;;;5036348;28;20556;-66
2022/03/06 05:14:27;;;;;;;6.87;2.83;;;1.80;99.90;;;;;;5046471;28;20473;-66
2022/03/06 05:16:55;;;;;;;5.37;2.80;;;1.70;99.90;;;;;;5054856;28;20474;-66
2022/03/06 05:19:23;;;;;;;4.17;2.40;;;1.70;99.90;;;;;;5054521;28;20460;-66
2022/03/06 05:21:51;;;;;;;3.03;2.70;;;1.70;99.90;;;;;;5054537;28;20808;-66
2022/03/06 05:24:19;;;;;;;4.13;3.07;;;1.80;99.90;;;;;;5054511;28;20825;-66
2022/03/06 05:26:47;;;;;;;4.60;2.80;;;1.70;99.90;;;;;;5054655;28;20486;-66
2022/03/06 05:29:16;;;;;;;13.50;4.17;;;1.80;99.90;;;;;;5046072;28;20533;-65
2022/03/06 05:31:45;;;;;;;3.93;2.80;;;1.70;99.90;;;;;;5054543;28;20471;-66
2022/03/06 05:34:14;;;;;;;4.43;3.00;;;1.60;99.90;;;;;;5045893;28;20472;-65
2022/03/06 05:36:42;;;;;;;4.70;3.20;;;1.60;99.90;;;;;;5046772;28;20557;-66
2022/03/06 05:39:10;;;;;;;5.63;3.13;;;1.60;99.90;;;;;;5054438;28;20483;-66
2022/03/06 05:41:38;;;;;;;4.90;3.00;;;1.70;99.90;;;;;;5054402;28;20458;-66
2022/03/06 05:44:06;;;;;;;3.23;2.73;;;1.70;99.90;;;;;;5044087;28;20526;-66
2022/03/06 05:46:34;;;;;;;3.47;3.17;;;1.70;99.90;;;;;;5053926;28;20475;-66
2022/03/06 05:49:12;;;;;;;4.07;2.97;;;1.80;99.90;;;;;;5047294;28;20825;-65
2022/03/06 05:51:41;;;;;;;3.77;3.10;;;1.80;99.90;;;;;;5035888;28;20530;-65
2022/03/06 05:54:09;;;;;;;4.70;3.40;;;1.90;99.90;;;;;;5050187;28;20467;-66
2022/03/06 05:56:39;;;;;;;6.37;3.23;;;2.00;99.90;;;;;;5034226;28;20533;-66
2022/03/06 05:59:07;;;;;;;5.53;2.67;;;1.90;99.90;;;;;;5034220;28;20521;-66
2022/03/06 06:01:36;;;;;;;4.73;3.20;;;1.80;99.90;;;;;;5034132;28;20482;-65
2022/03/06 06:04:06;;;;;;;4.60;3.10;;;2.00;99.90;;;;;;5046226;28;20481;-66
2022/03/06 06:06:34;;;;;;;3.50;3.03;;;2.00;99.90;;;;;;5052318;28;20471;-66
2022/03/06 06:09:03;;;;;;;4.70;3.90;;;1.90;99.90;;;;;;5046814;28;20995;-66
2022/03/06 06:11:31;;;;;;;4.27;3.13;;;2.10;99.90;;;;;;5052772;28;20466;-66
2022/03/06 06:13:59;;;;;;;4.57;3.67;;;2.10;99.90;;;;;;5047039;28;20479;-66
2022/03/06 06:16:27;;;;;;;5.53;3.80;;;2.00;99.90;;;;;;5052584;28;20825;-66
2022/03/06 06:18:56;;;;;;;4.20;3.20;;;2.00;99.90;;;;;;5047541;28;20469;-66
2022/03/06 06:21:25;;;;;;;4.83;3.40;;;1.80;99.90;;;;;;5051032;28;20581;-66
2022/03/06 06:23:53;;;;;;;4.47;3.20;;;1.70;99.90;;;;;;5052912;28;20878;-66
2022/03/06 06:26:23;;;;;;;5.40;3.40;;;1.60;99.90;;;;;;5053064;28;20953;-66
2022/03/06 06:28:55;;;;;;;5.07;3.83;;;1.60;99.90;;;;;;5053045;28;20988;-66
2022/03/06 06:31:24;;;;;;;3.20;2.90;;;1.60;99.90;;;;;;5048969;28;20490;-65
2022/03/06 06:33:53;;;;;;;4.90;3.23;;;1.60;99.90;;;;;;5052310;28;20520;-66
2022/03/06 06:36:21;;;;;;;3.40;3.10;;;1.60;99.90;;;;;;5052813;28;20865;-66
2022/03/06 06:38:51;;;;;;;3.50;3.13;;;1.50;99.90;;;;;;5052620;28;20490;-66
2022/03/06 06:41:19;;;;;;;3.50;3.20;;;1.70;99.90;;;;;;5050585;28;20488;-66
2022/03/06 06:43:47;;;;;;;5.47;3.77;;;1.80;99.90;;;;;;5052553;28;20550;-66
2022/03/06 06:46:15;;;;;;;5.37;3.30;;;1.70;99.90;;;;;;5049088;28;20478;-66
2022/03/06 06:48:44;;;;;;;4.23;3.40;;;1.70;99.90;;;;;;5045885;28;20473;-64
2022/03/06 06:51:12;;;;;;;3.83;3.40;;;1.60;99.90;;;;;;5049800;28;20886;-65
2022/03/06 06:53:40;;;;;;;6.40;3.30;;;1.60;99.90;;;;;;5052382;28;20459;-66
2022/03/06 06:56:09;;;;;;;4.97;3.13;;;1.70;99.90;;;;;;5052626;28;20998;-66
2022/03/06 06:58:37;;;;;;;4.63;3.43;;;1.90;99.90;;;;;;5049389;28;21013;-66
2022/03/06 07:01:05;;;;;;;4.23;3.67;;;1.80;99.90;;;;;;5046866;28;20466;-66
2022/03/06 07:03:34;;;;;;;4.37;3.70;;;1.70;99.90;;;;;;5049551;28;20476;-66
2022/03/06 07:06:02;;;;;;;4.73;3.50;;;1.70;99.90;;;;;;5052334;28;20835;-65
2022/03/06 07:08:30;;;;;;;4.47;3.40;;;1.70;99.90;;;;;;5052063;28;20472;-64
2022/03/06 07:10:58;;;;;;;5.40;3.70;;;1.80;99.90;;;;;;5049474;28;21059;-63
2022/03/06 07:13:28;;;;;;;6.27;3.20;;;1.70;99.90;;;;;;5052366;28;20458;-66
2022/03/06 07:15:56;;;;;;;4.30;3.73;;;1.90;99.90;;;;;;5052252;28;20955;-66
2022/03/06 07:18:24;;;;;;;5.03;3.57;;;1.80;99.90;;;;;;5051995;28;21018;-66
2022/03/06 07:20:53;;;;;;;4.20;3.80;;;1.80;99.90;;;;;;5051930;28;20988;-66
2022/03/06 07:23:21;;;;;;;4.87;3.90;;;1.80;99.90;;;;;;5049943;28;20458;-66
2022/03/06 07:25:49;;;;;;;5.00;4.17;;;2.10;99.90;;;;;;5052029;28;20472;-66
2022/03/06 07:28:18;;;;;;;4.40;4.00;;;2.20;99.90;;;;;;5051512;28;20463;-65
2022/03/06 07:30:48;;;;;;;4.17;3.77;;;2.30;99.90;;;;;;5051759;28;20501;-66
2022/03/06 07:33:16;;;;;;;4.63;3.60;;;2.30;99.90;;;;;;5050770;28;20987;-66
2022/03/06 07:35:44;;;;;;;4.43;3.80;;;2.50;99.90;;;;;;5051663;28;20475;-66
2022/03/06 07:38:13;;;;;;;6.60;3.90;;;2.60;99.90;;;;;;5051457;28;20507;-65
2022/03/06 07:40:41;;;;;;;4.37;3.70;;;2.40;99.90;;;;;;5051643;28;20542;-66
2022/03/06 07:43:09;;;;;;;4.27;3.90;;;2.40;99.90;;;;;;5051595;28;20459;-66
2022/03/06 07:45:38;;;;;;;6.83;4.00;;;2.30;99.90;;;;;;5051060;28;20534;-65
2022/03/06 07:48:07;;;;;;;3.80;3.47;;;2.30;99.90;;;;;;5051471;28;20464;-66
2022/03/06 07:50:36;;;;;;;4.47;4.07;;;2.40;99.90;;;;;;5051481;28;20495;-66
2022/03/06 07:53:04;;;;;;;7.20;3.93;;;2.30;99.90;;;;;;5046785;28;20472;-65
2022/03/06 07:55:32;;;;;;;4.67;3.70;;;2.30;99.90;;;;;;5051396;28;20471;-66
2022/03/06 07:58:00;;;;;;;4.80;3.80;;;2.50;99.90;;;;;;5048977;28;20459;-66
2022/03/06 08:00:28;;;;;;;5.30;3.87;;;2.70;99.90;;;;;;5050526;28;20604;-66
2022/03/06 08:02:56;;;;;;;3.40;3.10;;;2.80;99.90;;;;;;5050696;28;20475;-66
2022/03/06 08:05:26;;;;;;;4.13;3.63;;;2.80;99.90;;;;;;5049433;28;20486;-66
2022/03/06 08:07:54;;;;;;;4.00;3.13;;;2.70;99.90;;;;;;5051297;28;20465;-66
2022/03/06 08:10:22;;;;;;;3.40;2.90;;;2.70;99.90;;;;;;5051040;28;20516;-66
2022/03/06 08:12:51;;;;;;;3.97;2.83;;;3.10;99.90;;;;;;5050783;28;20966;-66
2022/03/06 08:15:19;;;;;;;3.20;2.30;;;3.40;99.90;;;;;;5049068;28;20464;-65
2022/03/06 08:17:47;;;;;;;3.03;2.33;;;3.80;99.90;;;;;;5047467;28;20469;-65
2022/03/06 08:20:15;;;;;;;2.87;2.13;;;4.10;99.90;;;;;;5047158;28;20617;-66
2022/03/06 08:22:45;;;;;;;3.60;2.10;;;4.30;99.90;;;;;;5055537;28;20478;-65
2022/03/06 08:25:13;;;;;;;2.27;1.90;;;4.50;99.90;;;;;;5065203;28;20905;-65
2022/03/06 08:27:41;;;;;;;4.57;2.30;;;4.70;99.90;;;;;;5066130;28;20475;-65
2022/03/06 08:30:09;;;;;;;2.73;1.90;;;4.80;99.90;;;;;;5069163;28;20470;-65
2022/03/06 08:32:38;;;;;;;1.77;1.53;;;5.00;99.90;;;;;;5068191;28;20461;-66
2022/03/06 08:35:08;;;;;;;1.90;1.50;;;5.30;99.90;;;;;;5067573;28;20586;-65
2022/03/06 08:37:36;;;;;;;8.00;2.30;;;5.60;99.90;;;;;;5069174;28;20434;-64
2022/03/06 08:40:08;;;;;;;4.07;1.63;;;6.20;99.90;;;;;;5070523;28;20308;-64
2022/03/06 08:42:36;;;;;;;4.60;2.00;;;6.20;99.90;;;;;;5067478;28;20226;-64
2022/03/06 08:45:05;;;;;;;2.43;1.60;;;6.10;99.90;;;;;;5069672;28;20461;-64
2022/03/06 08:47:34;;;;;;;2.37;2.00;;;6.10;99.90;;;;;;5067463;28;20989;-64
2022/03/06 08:50:02;;;;;;;2.53;1.57;;;6.20;99.90;;;;;;5070348;28;20253;-64
2022/03/06 08:52:30;;;;;;;2.40;1.50;;;6.30;99.90;;;;;;5068157;28;21000;-63
2022/03/06 08:54:58;;;;;;;2.67;1.50;;;6.30;99.90;;;;;;5070530;28;20231;-64
2022/03/06 08:57:27;;;;;;;3.73;1.80;;;6.40;99.90;;;;;;5070345;28;20234;-64
2022/03/06 08:59:56;;;;;;;2.60;1.70;;;6.20;99.90;;;;;;5067852;28;20477;-64
2022/03/06 09:02:24;;;;;;;2.57;1.80;;;6.50;99.90;;;;;;5053271;28;20268;-64
2022/03/06 09:04:52;;;;;;;2.80;1.60;;;6.70;99.90;;;;;;5043790;28;20255;-64
2022/03/06 09:07:20;;;;;;;3.20;1.77;;;6.60;99.90;;;;;;5044370;28;20251;-63
2022/03/06 09:09:49;;;;;;;2.57;1.80;;;6.60;99.90;;;;;;5047397;28;20700;-64
2022/03/06 09:12:18;;;;;;;3.07;1.70;;;6.90;99.90;;;;;;5046845;28;20533;-63
2022/03/06 09:14:47;;;;;;;2.67;1.87;;;7.20;99.90;;;;;;5047909;28;20220;-64
2022/03/06 09:17:16;;;;;;;2.10;1.60;;;7.20;99.90;;;;;;5047570;28;20592;-64
2022/03/06 09:19:44;;;;;;;3.07;1.97;;;7.20;99.90;;;;;;5047784;28;20232;-64
2022/03/06 09:22:12;;;;;;;2.90;1.70;;;7.50;99.90;;;;;;5047511;28;20238;-64
2022/03/06 09:24:40;;;;;;;2.70;1.60;;;7.70;99.90;;;;;;5045500;28;20247;-63
2022/03/06 09:27:09;;;;;;;2.27;1.60;;;7.50;99.90;;;;;;5042457;28;20273;-63
2022/03/06 09:29:37;;;;;;;2.17;1.97;;;7.60;99.90;;;;;;5031784;28;20244;-63
2022/03/06 09:32:08;;;;;;;2.00;1.80;;;7.70;99.90;;;;;;5030925;28;20235;-64
2022/03/06 09:34:36;;;;;;;3.07;1.60;;;7.80;99.90;;;;;;5046492;28;20608;-63
2022/03/06 09:37:05;;;;;;;2.90;1.60;;;7.90;99.90;;;;;;5050094;28;20236;-63
2022/03/06 09:39:33;;;;;;;2.63;1.83;;;7.70;99.90;;;;;;5047258;28;20238;-64
2022/03/06 09:42:01;;;;;;;3.47;1.40;;;7.80;99.90;;;;;;5053740;28;20277;-63
2022/03/06 09:44:30;;;;;;;2.60;1.87;;;7.50;99.90;;;;;;5052589;28;20734;-63
2022/03/06 09:46:59;;;;;;;2.33;1.50;;;7.10;99.90;;;;;;5054843;28;20227;-62
2022/03/06 09:49:29;;;;;;;2.23;1.27;;;7.00;99.90;;;;;;5056526;28;20473;-63
2022/03/06 09:51:57;;;;;;;3.07;1.53;;;7.50;99.90;;;;;;5055645;28;20231;-63
2022/03/06 09:54:25;;;;;;;1.87;1.60;;;7.80;99.90;;;;;;5055515;28;20577;-64
2022/03/06 09:56:54;;;;;;;2.27;1.70;;;7.60;99.90;;;;;;5054913;28;20704;-63
2022/03/06 09:59:22;;;;;;;3.23;1.80;;;7.30;99.90;;;;;;5059192;28;20300;-63
2022/03/06 10:01:50;;;;;;;2.20;1.73;;;7.50;99.90;;;;;;5058821;28;20239;-63
2022/03/06 10:04:24;;;;;;;3.23;1.97;;;7.80;99.90;;;;;;5064342;28;20243;-62
2022/03/06 10:07:02;;;;;;;2.47;1.97;;;8.10;99.90;;;;;;5073205;28;20694;-63
2022/03/06 10:09:31;;;;;;;1.90;1.60;;;8.20;99.90;;;;;;5068753;28;20238;-63
2022/03/06 10:12:00;;;;;;;3.30;2.00;;;8.30;99.90;;;;;;5070720;28;20227;-63
2022/03/06 10:14:40;;;;;;;4.63;2.10;;;8.10;99.90;;;;;;5067924;28;20253;-63
2022/03/06 10:17:13;;;;;;;3.80;2.27;;;8.00;99.90;;;;;;5069059;28;20226;-63
2022/03/06 10:19:53;;;;;;;3.67;2.00;;;7.80;99.90;;;;;;5073389;28;20289;-62
2022/03/06 10:22:25;;;;;;;3.97;2.10;;;7.70;99.90;;;;;;5071776;28;20627;-63
2022/03/06 10:24:56;;;;;;;3.50;2.10;;;7.90;99.90;;;;;;5073671;28;20600;-63
2022/03/06 10:27:47;;;;;;;3.53;2.20;;;8.10;99.90;;;;;;5073514;28;20358;-63
2022/03/06 10:30:28;;;;;;;3.30;2.23;;;8.50;99.90;;;;;;5063968;28;20634;-62
2022/03/06 10:32:58;;;;;;;4.73;2.50;;;8.70;99.90;;;;;;5061617;28;20239;-62
2022/03/06 10:35:34;;;;;;;3.27;2.40;;;8.70;99.90;;;;;;5044711;28;20724;-62
2022/03/06 10:38:18;;;;;;;5.43;2.40;;;8.50;99.90;;;;;;5064791;28;20238;-63
2022/03/06 10:40:46;;;;;;;3.77;2.27;;;8.40;99.90;;;;;;5058343;28;20235;-62
2022/03/06 10:43:25;;;;;;;3.93;2.23;;;8.40;99.90;;;;;;5049721;28;20232;-62
2022/03/06 10:46:07;;;;;;;2.30;2.10;;;8.20;99.90;;;;;;5047475;28;20319;-63
2022/03/06 10:48:36;;;;;;;3.60;2.40;;;8.00;99.90;;;;;;5049204;28;20233;-63
2022/03/06 10:51:07;;;;;;;3.87;2.23;;;7.50;99.90;;;;;;5048327;28;20231;-63
2022/03/06 10:53:37;;;;;;;2.70;2.17;;;7.40;99.90;;;;;;5049717;28;20286;-63
2022/03/06 10:56:11;;;;;;;4.17;2.40;;;7.00;99.90;;;;;;5048570;28;20235;-63
2022/03/06 10:58:40;;;;;;;3.50;2.20;;;6.90;99.90;;;;;;5052932;28;20259;-63
2022/03/06 11:01:26;;;;;;;4.60;2.80;;;6.90;99.90;;;;;;5053036;28;20238;-62
2022/03/06 11:03:55;;;;;;;4.10;2.53;;;7.10;99.90;;;;;;5034646;28;20238;-62
2022/03/06 11:06:24;;;;;;;3.00;2.40;;;7.60;99.90;;;;;;5032920;28;20791;-63
2022/03/06 11:08:54;;;;;;;3.23;2.30;;;8.20;99.90;;;;;;5044367;28;20236;-62
2022/03/06 11:11:23;;;;;;;4.13;2.47;;;8.40;99.90;;;;;;5050702;28;20236;-62
2022/03/06 11:13:54;;;;;;;4.37;2.20;;;8.00;99.90;;;;;;5047264;28;20224;-63
2022/03/06 11:16:22;;;;;;;2.63;2.43;;;7.60;99.90;;;;;;5050520;28;20251;-63
2022/03/06 11:18:53;;;;;;;3.03;2.50;;;7.70;99.90;;;;;;5052397;28;20232;-62
2022/03/06 11:21:24;;;;;;;4.33;2.80;;;8.00;99.90;;;;;;5052286;28;20231;-62
2022/03/06 11:23:56;;;;;;;2.80;2.40;;;8.00;99.90;;;;;;5052412;28;20307;-63
2022/03/06 11:26:58;;;;;;;4.53;2.90;;;8.30;99.90;;;;;;5052549;28;20254;-63
2022/03/06 11:29:51;;;;;;;3.03;2.33;;;8.10;99.90;;;;;;5050084;28;20679;-62
2022/03/06 11:32:28;;;;;;;3.73;2.27;;;7.60;99.90;;;;;;5052088;28;20315;-63
2022/03/06 11:35:04;;;;;;;3.53;2.20;;;7.50;99.90;;;;;;5041272;28;20236;-63
2022/03/06 11:37:46;;;;;;;3.00;2.40;;;8.00;99.90;;;;;;5050370;28;20234;-62
2022/03/06 11:40:38;;;;;;;2.30;2.10;;;8.60;99.90;;;;;;5052355;28;20319;-62
2022/03/06 11:43:07;;;;;;;5.27;2.43;;;8.90;99.90;;;;;;5052023;28;20255;-63
2022/03/06 11:45:50;;;;;;;3.37;2.40;;;8.60;99.90;;;;;;5043776;28;20319;-63
2022/03/06 11:48:27;;;;;;;2.33;2.13;;;8.40;99.90;;;;;;5042223;28;20259;-63
2022/03/06 11:51:18;;;;;;;3.63;2.60;;;8.60;99.90;;;;;;5032246;28;20653;-63
2022/03/06 11:53:50;;;;;;;3.00;2.50;;;8.40;99.90;;;;;;5048693;28;20286;-63
2022/03/06 11:56:58;;;;;;;4.87;2.80;;;8.00;99.90;;;;;;5051737;28;20274;-62
2022/03/06 11:59:35;;;;;;;2.33;2.13;;;7.70;99.90;;;;;;5049720;28;20311;-63
2022/03/06 12:02:07;;;;;;;3.10;2.70;;;7.50;99.90;;;;;;5046584;28;20681;-63
2022/03/06 12:04:40;;;;;;;3.87;2.53;;;7.40;99.90;;;;;;5051086;28;20236;-63
2022/03/06 12:07:10;;;;;;;3.73;2.53;;;7.20;99.90;;;;;;5050954;28;20282;-63
2022/03/06 12:09:40;;;;;;;3.13;2.70;;;6.90;99.90;;;;;;5049662;28;20232;-63
2022/03/06 12:12:11;;;;;;;4.70;2.87;;;6.70;99.90;;;;;;5049592;28;20219;-63
2022/03/06 12:14:41;;;;;;;3.77;2.70;;;6.60;99.90;;;;;;5051341;28;20307;-63
2022/03/06 12:17:35;;;;;;;3.73;2.57;;;6.60;99.90;;;;;;5051372;28;20281;-63
2022/03/06 12:20:27;;;;;;;3.50;2.93;;;6.60;99.90;;;;;;5049183;28;20232;-63
2022/03/06 12:23:06;;;;;;;3.77;2.80;;;6.70;99.90;;;;;;5048943;28;20243;-63
2022/03/06 12:25:37;;;;;;;3.20;2.90;;;6.70;99.90;;;;;;5050565;28;20289;-63
2022/03/06 12:28:21;;;;;;;5.63;2.97;;;6.60;99.90;;;;;;5049900;28;20600;-63
2022/03/06 12:30:50;;;;;;;5.37;3.00;;;6.40;99.90;;;;;;5051066;28;20242;-63
2022/03/06 12:33:42;;;;;;;4.30;2.80;;;6.40;99.90;;;;;;5050682;28;20236;-63
2022/03/06 12:36:24;;;;;;;6.40;2.93;;;6.40;99.90;;;;;;5050427;28;20326;-63
2022/03/06 12:38:57;;;;;;;4.00;3.03;;;6.50;99.90;;;;;;5041015;28;20255;-63
2022/03/06 12:41:28;;;;;;;3.17;2.70;;;6.40;99.90;;;;;;5046970;28;20226;-63
2022/03/06 12:44:02;;;;;;;4.53;2.93;;;6.30;99.90;;;;;;5050979;28;20252;-63
2022/03/06 12:46:30;;;;;;;4.57;3.23;;;6.20;99.90;;;;;;5050733;28;20231;-63
2022/03/06 12:48:59;;;;;;;3.70;2.90;;;6.30;99.90;;;;;;5044661;28;20263;-63
2022/03/06 12:51:39;;;;;;;4.80;2.70;;;6.40;99.90;;;;;;5049461;28;20223;-63
2022/03/06 12:54:18;;;;;;;6.33;2.70;;;6.50;99.90;;;;;;5046349;28;20235;-63
2022/03/06 12:56:46;;;;;;;5.00;2.90;;;6.60;99.90;;;;;;5031544;28;20286;-63
2022/03/06 12:59:18;;;;;;;4.10;3.27;;;6.70;99.90;;;;;;5042347;28;20312;-63
2022/03/06 13:01:47;;;;;;;4.23;3.13;;;6.60;99.90;;;;;;5050830;28;20242;-63
2022/03/06 13:04:17;;;;;;;5.20;2.90;;;6.40;99.90;;;;;;5050657;28;20262;-63
2022/03/06 13:06:46;;;;;;;3.37;3.07;;;6.40;99.90;;;;;;5050223;28;20652;-63
2022/03/06 13:09:27;;;;;;;5.40;3.47;;;6.30;99.90;;;;;;5030813;28;20229;-63
2022/03/06 13:11:57;;;;;;;7.20;3.07;;;6.20;99.90;;;;;;5050786;28;20266;-63
2022/03/06 13:14:33;;;;;;;5.17;3.20;;;6.20;99.90;;;;;;5047685;28;20231;-63